createdAt,value
2018-09-28T00:00:15.787Z,10.31
2018-09-28T00:02:44.170Z,10.28
2018-09-28T00:05:12.517Z,10.23
2018-09-28T00:07:42.076Z,10.21
2018-09-28T00:10:10.470Z,10.18
2018-09-28T00:12:38.831Z,10.13
2018-09-28T00:15:07.209Z,10.10
2018-09-28T00:17:35.570Z,10.08
2018-09-28T00:20:03.928Z,10.07
2018-09-28T00:22:32.317Z,10.03
2018-09-28T00:25:00.676Z,10.00
2018-09-28T00:28:08.735Z,9.96
2018-09-28T00:30:37.198Z,9.90
2018-09-28T00:33:05.574Z,9.88
2018-09-28T00:35:33.951Z,9.86
2018-09-28T00:38:02.544Z,9.84
2018-09-28T00:40:30.880Z,9.79
2018-09-28T00:42:59.248Z,9.75
2018-09-28T00:45:27.599Z,9.71
2018-09-28T00:47:55.928Z,9.69
2018-09-28T00:50:24.316Z,9.67
2018-09-28T00:52:52.713Z,9.64
2018-09-28T00:55:21.117Z,9.62
2018-09-28T00:57:49.484Z,9.58
2018-09-28T01:00:18.896Z,9.55
2018-09-28T01:02:47.236Z,9.51
2018-09-28T01:05:15.641Z,9.45
2018-09-28T01:07:44.084Z,9.42
2018-09-28T01:10:12.517Z,9.40
2018-09-28T01:12:40.857Z,9.37
2018-09-28T01:15:09.201Z,9.36
2018-09-28T01:17:37.996Z,9.32
2018-09-28T01:20:06.658Z,9.32
2018-09-28T01:22:35.089Z,9.34
2018-09-28T01:25:05.616Z,9.38
2018-09-28T01:27:33.954Z,9.38
2018-09-28T01:30:02.328Z,9.33
2018-09-28T01:32:30.888Z,9.34
2018-09-28T01:34:59.268Z,9.32
2018-09-28T01:37:27.600Z,9.30
2018-09-28T01:39:55.972Z,9.31
2018-09-28T01:42:24.363Z,9.27
2018-09-28T01:44:52.744Z,9.26
2018-09-28T01:47:21.077Z,9.29
2018-09-28T01:49:49.442Z,9.25
2018-09-28T01:52:17.823Z,9.21
2018-09-28T01:54:46.180Z,9.22
2018-09-28T01:57:14.557Z,9.18
2018-09-28T01:59:42.962Z,9.14
2018-09-28T02:02:11.353Z,9.09
2018-09-28T02:04:39.708Z,9.09
2018-09-28T02:07:08.078Z,9.09
2018-09-28T02:09:36.468Z,9.07
2018-09-28T02:12:04.815Z,9.08
2018-09-28T02:14:33.187Z,9.07
2018-09-28T02:17:01.528Z,9.07
2018-09-28T02:19:29.929Z,9.07
2018-09-28T02:21:58.264Z,9.10
2018-09-28T02:24:26.610Z,9.11
2018-09-28T02:26:54.960Z,9.08
2018-09-28T02:29:23.384Z,9.08
2018-09-28T02:31:51.736Z,9.05
2018-09-28T02:34:20.111Z,9.01
2018-09-28T02:36:48.550Z,8.99
2018-09-28T02:39:16.906Z,8.97
2018-09-28T02:41:45.277Z,8.96
2018-09-28T02:44:13.630Z,8.99
2018-09-28T02:46:42.013Z,8.99
2018-09-28T02:49:10.370Z,8.99
2018-09-28T02:51:38.745Z,8.97
2018-09-28T02:54:07.094Z,8.97
2018-09-28T02:56:35.522Z,8.98
2018-09-28T02:59:03.936Z,9.02
2018-09-28T03:01:32.297Z,9.13
2018-09-28T03:04:00.667Z,9.22
2018-09-28T03:06:29.326Z,9.33
2018-09-28T03:08:57.919Z,9.45
2018-09-28T03:11:26.322Z,9.55
2018-09-28T03:13:54.734Z,9.63
2018-09-28T03:16:23.078Z,9.73
2018-09-28T03:18:51.484Z,9.82
2018-09-28T03:21:19.891Z,9.88
2018-09-28T03:23:48.270Z,9.95
2018-09-28T03:26:16.600Z,10.01
2018-09-28T03:28:44.954Z,10.06
2018-09-28T03:31:13.270Z,10.13
2018-09-28T03:33:41.679Z,10.17
2018-09-28T03:36:10.099Z,10.23
2018-09-28T03:38:39.002Z,10.24
2018-09-28T03:41:07.320Z,10.28
2018-09-28T03:43:35.773Z,10.30
2018-09-28T03:46:04.124Z,10.31
2018-09-28T03:48:32.719Z,10.32
2018-09-28T03:51:01.127Z,10.35
2018-09-28T03:53:29.454Z,10.38
2018-09-28T03:55:57.799Z,10.46
2018-09-28T03:58:26.187Z,10.51
2018-09-28T04:00:54.558Z,10.54
2018-09-28T04:03:22.907Z,10.59
2018-09-28T04:05:51.281Z,10.64
2018-09-28T04:08:19.758Z,10.72
2018-09-28T04:10:48.105Z,10.76
2018-09-28T04:13:16.424Z,10.82
2018-09-28T04:15:44.795Z,10.84
2018-09-28T04:18:35.600Z,10.88
2018-09-28T04:21:06.339Z,10.94
2018-09-28T04:23:34.672Z,10.97
2018-09-28T04:26:03.064Z,11.00
2018-09-28T04:28:31.415Z,11.04
2018-09-28T04:31:00.884Z,11.07
2018-09-28T04:33:29.248Z,11.11
2018-09-28T04:35:57.654Z,11.15
2018-09-28T04:38:26.080Z,11.18
2018-09-28T04:40:54.415Z,11.21
2018-09-28T04:43:22.805Z,11.23
2018-09-28T04:45:51.402Z,11.26
2018-09-28T04:48:19.762Z,11.27
2018-09-28T04:50:48.118Z,11.29
2018-09-28T04:53:16.476Z,11.31
2018-09-28T04:55:45.976Z,11.34
2018-09-28T04:58:14.663Z,11.38
2018-09-28T05:00:42.993Z,11.41
2018-09-28T05:03:11.409Z,11.41
2018-09-28T05:05:39.835Z,11.43
2018-09-28T05:08:08.227Z,11.44
2018-09-28T05:10:36.619Z,11.47
2018-09-28T05:13:05.134Z,11.48
2018-09-28T05:15:33.463Z,11.52
2018-09-28T05:18:02.635Z,11.54
2018-09-28T05:20:30.985Z,11.56
2018-09-28T05:22:59.339Z,11.55
2018-09-28T05:25:27.822Z,11.54
2018-09-28T05:27:56.159Z,11.56
2018-09-28T05:30:24.551Z,11.58
2018-09-28T05:32:52.979Z,11.61
2018-09-28T05:35:21.280Z,11.62
2018-09-28T05:37:49.631Z,11.64
2018-09-28T05:40:18.077Z,11.67
2018-09-28T05:42:47.306Z,11.68
2018-09-28T05:45:15.797Z,11.69
2018-09-28T05:47:44.348Z,11.69
2018-09-28T05:50:12.736Z,11.70
2018-09-28T05:52:41.106Z,11.72
2018-09-28T05:55:09.500Z,11.75
2018-09-28T05:57:37.868Z,11.77
2018-09-28T06:00:11.520Z,11.76
2018-09-28T06:02:45.310Z,11.77
2018-09-28T06:05:19.176Z,11.78
2018-09-28T06:07:47.525Z,11.80
2018-09-28T06:10:15.987Z,11.81
2018-09-28T06:12:44.335Z,11.83
2018-09-28T06:15:12.653Z,11.86
2018-09-28T06:17:41.036Z,11.89
2018-09-28T06:20:09.400Z,11.94
2018-09-28T06:22:37.792Z,11.97
2018-09-28T06:25:06.581Z,12.02
2018-09-28T06:27:34.936Z,12.07
2018-09-28T06:30:03.373Z,12.13
2018-09-28T06:32:31.719Z,12.17
2018-09-28T06:35:04.024Z,12.23
2018-09-28T06:37:33.210Z,12.28
2018-09-28T06:40:01.507Z,12.34
2018-09-28T06:42:29.922Z,12.40
2018-09-28T06:44:58.284Z,12.46
2018-09-28T06:47:26.669Z,12.50
2018-09-28T06:49:55.060Z,12.60
2018-09-28T06:52:23.412Z,12.68
2018-09-28T06:54:51.788Z,12.75
2018-09-28T06:57:20.625Z,12.77
2018-09-28T06:59:49.074Z,12.85
2018-09-28T07:02:17.403Z,12.87
2018-09-28T07:04:45.956Z,12.90
2018-09-28T07:07:14.485Z,12.90
2018-09-28T07:09:42.825Z,12.89
2018-09-28T07:12:11.255Z,12.90
2018-09-28T07:14:39.593Z,12.88
2018-09-28T07:17:08.092Z,12.89
2018-09-28T07:19:36.653Z,12.93
2018-09-28T07:22:05.088Z,12.95
2018-09-28T07:24:33.517Z,12.97
2018-09-28T07:27:01.819Z,13.00
2018-09-28T07:29:30.179Z,13.10
2018-09-28T07:31:58.533Z,13.22
2018-09-28T07:34:26.961Z,13.20
2018-09-28T07:36:55.409Z,13.26
2018-09-28T07:39:23.766Z,13.33
2018-09-28T07:41:52.140Z,13.28
2018-09-28T07:44:20.631Z,13.22
2018-09-28T07:46:48.962Z,13.33
2018-09-28T07:49:17.356Z,13.29
2018-09-28T07:51:45.635Z,13.27
2018-09-28T07:54:14.048Z,13.32
2018-09-28T07:56:42.556Z,13.43
2018-09-28T07:59:10.903Z,13.47
2018-09-28T08:01:39.226Z,13.45
2018-09-28T08:04:07.925Z,13.43
2018-09-28T08:09:18.207Z,13.41
2018-09-28T08:11:47.068Z,13.34
2018-09-28T08:14:15.397Z,13.38
2018-09-28T08:16:44.032Z,13.37
2018-09-28T08:19:12.400Z,13.36
2018-09-28T08:21:40.776Z,13.28
2018-09-28T08:24:09.213Z,13.21
2018-09-28T08:26:37.691Z,13.17
2018-09-28T08:29:06.290Z,13.17
2018-09-28T08:31:34.733Z,13.22
2018-09-28T08:34:03.117Z,13.32
2018-09-28T08:36:31.558Z,13.25
2018-09-28T08:38:59.827Z,13.04
2018-09-28T08:41:28.233Z,12.81
2018-09-28T08:43:56.674Z,12.67
2018-09-28T08:46:25.010Z,12.50
2018-09-28T08:48:53.326Z,12.42
2018-09-28T08:51:21.702Z,12.35
2018-09-28T08:53:50.309Z,12.29
2018-09-28T08:56:18.689Z,12.26
2018-09-28T08:58:47.336Z,12.28
2018-09-28T09:01:15.801Z,12.31
2018-09-28T09:03:44.267Z,12.35
2018-09-28T09:06:12.823Z,12.37
2018-09-28T09:08:41.209Z,12.39
2018-09-28T09:11:09.561Z,12.36
2018-09-28T09:13:38.240Z,12.42
2018-09-28T09:16:06.625Z,12.51
2018-09-28T09:18:35.966Z,12.53
2018-09-28T09:21:04.427Z,12.51
2018-09-28T09:23:32.845Z,12.44
2018-09-28T09:26:01.314Z,12.45
2018-09-28T09:28:30.248Z,12.47
2018-09-28T09:30:58.607Z,12.48
2018-09-28T09:33:27.096Z,12.39
2018-09-28T09:35:55.731Z,12.25
2018-09-28T09:38:24.232Z,12.15
2018-09-28T09:40:52.711Z,12.03
2018-09-28T09:43:21.117Z,12.04
2018-09-28T09:45:49.489Z,12.03
2018-09-28T09:48:17.922Z,12.07
2018-09-28T09:50:46.339Z,12.13
2018-09-28T09:53:14.824Z,12.22
2018-09-28T09:55:43.189Z,12.34
2018-09-28T09:58:13.556Z,12.40
2018-09-28T10:00:48.501Z,12.38
2018-09-28T10:03:22.042Z,12.36
2018-09-28T10:05:50.431Z,12.49
2018-09-28T10:08:19.044Z,12.61
2018-09-28T10:10:47.413Z,12.70
2018-09-28T10:13:15.873Z,12.73
2018-09-28T10:15:44.265Z,12.75
2018-09-28T10:18:12.593Z,12.82
2018-09-28T10:20:40.931Z,12.88
2018-09-28T10:23:09.408Z,12.97
2018-09-28T10:25:37.740Z,13.04
2018-09-28T10:28:06.252Z,13.11
2018-09-28T10:30:34.545Z,13.18
2018-09-28T10:33:02.914Z,13.18
2018-09-28T10:35:31.218Z,13.25
2018-09-28T10:37:59.809Z,13.36
2018-09-28T10:40:29.477Z,13.37
2018-09-28T10:42:57.707Z,13.43
2018-09-28T10:45:26.089Z,13.50
2018-09-28T10:47:54.415Z,13.62
2018-09-28T10:50:22.763Z,13.64
2018-09-28T10:52:51.170Z,13.70
2018-09-28T10:55:19.459Z,13.78
2018-09-28T10:57:47.848Z,13.87
2018-09-28T11:00:16.336Z,13.99
2018-09-28T11:02:44.733Z,14.08
2018-09-28T11:05:13.122Z,14.21
2018-09-28T11:07:41.651Z,14.31
2018-09-28T11:10:10.169Z,14.40
2018-09-28T11:12:38.561Z,14.56
2018-09-28T11:15:06.960Z,14.74
2018-09-28T11:17:35.284Z,14.83
2018-09-28T11:20:04.531Z,14.94
2018-09-28T11:22:32.932Z,15.04
2018-09-28T11:25:01.298Z,15.10
2018-09-28T11:27:29.652Z,15.14
2018-09-28T11:29:58.056Z,14.98
2018-09-28T11:32:26.392Z,14.96
2018-09-28T11:34:54.739Z,14.91
2018-09-28T11:37:23.067Z,15.03
2018-09-28T11:39:51.438Z,15.19
2018-09-28T11:42:19.812Z,15.42
2018-09-28T11:44:48.122Z,15.57
2018-09-28T11:47:16.481Z,15.74
2018-09-28T11:49:44.826Z,15.78
2018-09-28T11:52:13.182Z,15.81
2018-09-28T11:54:42.103Z,15.74
2018-09-28T11:57:10.471Z,15.72
2018-09-28T11:59:38.822Z,15.68
2018-09-28T12:02:07.605Z,15.63
2018-09-28T12:04:35.953Z,15.59
2018-09-28T12:07:04.333Z,15.64
2018-09-28T12:09:32.709Z,15.65
2018-09-28T12:12:01.077Z,15.72
2018-09-28T12:14:29.444Z,15.62
2018-09-28T12:16:57.772Z,15.50
2018-09-28T12:19:26.141Z,15.49
2018-09-28T12:21:54.492Z,15.58
2018-09-28T12:24:23.050Z,15.57
2018-09-28T12:26:51.441Z,15.61
2018-09-28T12:29:19.765Z,15.61
2018-09-28T12:31:48.213Z,15.59
2018-09-28T12:34:16.550Z,15.53
2018-09-28T12:36:45.023Z,15.51
2018-09-28T12:39:13.677Z,15.55
2018-09-28T12:41:42.457Z,15.55
2018-09-28T12:44:12.073Z,15.60
2018-09-28T12:46:40.432Z,15.74
2018-09-28T12:49:08.804Z,15.87
2018-09-28T12:51:37.259Z,15.95
2018-09-28T12:54:05.890Z,15.93
2018-09-28T12:56:34.316Z,15.79
2018-09-28T12:59:02.674Z,15.68
2018-09-28T13:01:31.013Z,15.56
2018-09-28T13:03:59.351Z,15.34
2018-09-28T13:06:27.723Z,15.29
2018-09-28T13:08:56.056Z,15.30
2018-09-28T13:11:24.403Z,15.36
2018-09-28T13:13:52.769Z,15.40
2018-09-28T13:16:21.159Z,15.44
2018-09-28T13:18:49.585Z,15.47
2018-09-28T13:21:17.941Z,15.51
2018-09-28T13:23:46.279Z,15.52
2018-09-28T13:26:14.645Z,15.46
2018-09-28T13:28:42.981Z,15.43
2018-09-28T13:31:11.301Z,15.34
2018-09-28T13:33:39.716Z,15.26
2018-09-28T13:36:08.168Z,15.19
2018-09-28T13:38:36.663Z,15.15
2018-09-28T13:41:04.879Z,15.14
2018-09-28T13:43:33.225Z,15.15
2018-09-28T13:46:01.803Z,15.23
2018-09-28T13:48:30.163Z,15.35
2018-09-28T13:50:58.498Z,15.48
2018-09-28T13:53:26.860Z,15.57
2018-09-28T13:55:55.196Z,15.68
2018-09-28T13:58:23.611Z,15.75
2018-09-28T14:00:51.954Z,15.86
2018-09-28T14:03:20.319Z,15.97
2018-09-28T14:05:48.650Z,16.03
2018-09-28T14:08:17.028Z,16.09
2018-09-28T14:10:45.376Z,16.08
2018-09-28T14:13:13.876Z,16.14
2018-09-28T14:15:42.198Z,16.09
2018-09-28T14:18:10.616Z,16.08
2018-09-28T14:20:38.961Z,16.07
2018-09-28T14:23:07.303Z,16.03
2018-09-28T14:25:35.777Z,15.97
2018-09-28T14:28:04.309Z,15.89
2018-09-28T14:30:32.625Z,15.76
2018-09-28T14:33:00.980Z,15.64
2018-09-28T14:35:29.371Z,15.52
2018-09-28T14:37:57.723Z,15.53
2018-09-28T14:40:26.128Z,15.56
2018-09-28T14:42:55.642Z,15.54
2018-09-28T14:45:24.001Z,15.63
2018-09-28T14:47:52.434Z,15.72
2018-09-28T14:50:20.833Z,15.82
2018-09-28T14:52:49.230Z,15.94
2018-09-28T14:55:18.931Z,16.03
2018-09-28T14:57:47.291Z,15.93
2018-09-28T15:00:15.714Z,15.87
2018-09-28T15:02:44.111Z,15.74
2018-09-28T15:05:12.948Z,15.66
2018-09-28T15:07:41.329Z,15.65
2018-09-28T15:10:09.728Z,15.63
2018-09-28T15:12:38.159Z,15.61
2018-09-28T15:15:06.699Z,15.64
2018-09-28T15:17:35.092Z,15.63
2018-09-28T15:20:03.436Z,15.63
2018-09-28T15:22:31.807Z,15.52
2018-09-28T15:25:00.145Z,15.55
2018-09-28T15:27:28.491Z,15.55
2018-09-28T15:29:56.837Z,15.53
2018-09-28T15:32:25.195Z,15.46
2018-09-28T15:34:53.518Z,15.43
2018-09-28T15:37:21.813Z,15.38
2018-09-28T15:39:50.167Z,15.34
2018-09-28T15:42:18.534Z,15.27
2018-09-28T15:44:46.892Z,15.21
2018-09-28T15:47:15.191Z,15.20
2018-09-28T15:49:43.541Z,15.18
2018-09-28T15:52:11.860Z,15.21
2018-09-28T15:54:40.228Z,15.17
2018-09-28T15:57:09.845Z,15.18
2018-09-28T15:59:38.223Z,15.09
2018-09-28T16:02:06.970Z,15.05
2018-09-28T16:04:35.341Z,15.05
2018-09-28T16:07:03.768Z,15.01
2018-09-28T16:09:32.249Z,14.97
2018-09-28T16:12:00.577Z,14.94
2018-09-28T16:14:28.956Z,14.92
2018-09-28T16:16:57.366Z,14.88
2018-09-28T16:19:26.094Z,14.86
2018-09-28T16:21:54.464Z,14.81
2018-09-28T16:24:22.809Z,14.80
2018-09-28T16:26:51.136Z,14.79
2018-09-28T16:29:19.502Z,14.73
2018-09-28T16:31:47.858Z,14.69
2018-09-28T16:34:16.216Z,14.64
2018-09-28T16:36:44.544Z,14.60
2018-09-28T16:39:13.093Z,14.51
2018-09-28T16:41:42.003Z,14.43
2018-09-28T16:44:10.371Z,14.32
2018-09-28T16:46:38.722Z,14.25
2018-09-28T16:49:07.056Z,14.20
2018-09-28T16:51:35.423Z,14.13
2018-09-28T16:54:04.537Z,14.07
2018-09-28T16:56:32.891Z,14.03
2018-09-28T16:59:01.323Z,13.97
2018-09-28T17:01:29.715Z,13.90
2018-09-28T17:03:58.027Z,13.86
2018-09-28T17:06:26.425Z,13.79
2018-09-28T17:08:54.767Z,13.73
2018-09-28T17:11:23.079Z,13.69
2018-09-28T17:13:51.427Z,13.61
2018-09-28T17:16:19.759Z,13.56
2018-09-28T17:18:48.106Z,13.50
2018-09-28T17:21:16.436Z,13.45
2018-09-28T17:23:44.772Z,13.42
2018-09-28T17:26:13.093Z,13.34
2018-09-28T17:28:41.510Z,13.26
2018-09-28T17:31:09.809Z,13.21
2018-09-28T17:33:38.165Z,13.17
2018-09-28T17:36:06.475Z,13.13
2018-09-28T17:38:34.788Z,13.09
2018-09-28T17:41:03.104Z,13.03
2018-09-28T17:43:31.431Z,12.97
2018-09-28T17:45:59.791Z,12.94
2018-09-28T17:48:28.200Z,12.90
2018-09-28T17:50:56.497Z,12.85
2018-09-28T17:53:25.353Z,12.80
2018-09-28T17:55:53.648Z,12.74
2018-09-28T17:58:21.996Z,12.71
2018-09-28T18:00:50.351Z,12.65
2018-09-28T18:03:18.661Z,12.64
2018-09-28T18:05:47.008Z,12.61
2018-09-28T18:08:15.361Z,12.58
2018-09-28T18:10:43.768Z,12.53
2018-09-28T18:13:12.064Z,12.51
2018-09-28T18:15:40.345Z,12.48
2018-09-28T18:18:08.666Z,12.45
2018-09-28T18:20:36.973Z,12.44
2018-09-28T18:23:06.135Z,12.37
2018-09-28T18:25:35.168Z,12.35
2018-09-28T18:28:03.493Z,12.30
2018-09-28T18:30:31.826Z,12.26
2018-09-28T18:33:00.148Z,12.24
2018-09-28T18:35:28.874Z,12.21
2018-09-28T18:37:57.216Z,12.19
2018-09-28T18:40:25.835Z,12.19
2018-09-28T18:42:54.156Z,12.16
2018-09-28T18:45:22.553Z,12.12
2018-09-28T18:47:50.847Z,12.09
2018-09-28T18:50:19.175Z,12.05
2018-09-28T18:52:47.455Z,12.02
2018-09-28T18:55:15.797Z,11.99
2018-09-28T18:57:44.108Z,11.95
2018-09-28T19:00:12.412Z,11.92
2018-09-28T19:02:40.893Z,11.90
2018-09-28T19:05:09.416Z,11.87
2018-09-28T19:07:37.775Z,11.83
2018-09-28T19:10:06.288Z,11.82
2018-09-28T19:12:49.541Z,11.77
2018-09-28T19:15:21.598Z,11.74
2018-09-28T19:17:50.128Z,11.72
2018-09-28T19:20:18.461Z,11.72
2018-09-28T19:22:46.983Z,11.69
2018-09-28T19:25:15.311Z,11.64
2018-09-28T19:27:43.638Z,11.62
2018-09-28T19:30:11.990Z,11.59
2018-09-28T19:32:40.520Z,11.55
2018-09-28T19:35:08.876Z,11.50
2018-09-28T19:37:37.996Z,11.49
2018-09-28T19:40:06.343Z,11.48
2018-09-28T19:42:34.633Z,11.44
2018-09-28T19:45:02.958Z,11.43
2018-09-28T19:47:31.582Z,11.40
2018-09-28T19:49:59.927Z,11.39
2018-09-28T19:52:28.496Z,11.38
2018-09-28T19:54:56.918Z,11.37
2018-09-28T19:57:25.200Z,11.34
2018-09-28T19:59:53.509Z,11.30
2018-09-28T20:02:21.857Z,11.28
2018-09-28T20:04:50.167Z,11.25
2018-09-28T20:07:18.443Z,11.23
2018-09-28T20:09:46.804Z,11.23
2018-09-28T20:12:15.109Z,11.21
2018-09-28T20:14:47.238Z,11.19
2018-09-28T20:17:15.539Z,11.14
2018-09-28T20:19:43.846Z,11.08
2018-09-28T20:22:13.681Z,11.06
2018-09-28T20:24:41.985Z,11.04
2018-09-28T20:27:10.354Z,11.02
2018-09-28T20:29:38.687Z,11.00
2018-09-28T20:32:07.046Z,10.99
2018-09-28T20:34:35.385Z,10.97
2018-09-28T20:37:03.862Z,10.94
2018-09-28T20:39:32.139Z,10.92
2018-09-28T20:42:00.469Z,10.90
2018-09-28T20:44:28.820Z,10.87
2018-09-28T20:46:57.311Z,10.87
2018-09-28T20:49:25.647Z,10.88
2018-09-28T20:51:53.958Z,10.87
2018-09-28T20:54:22.253Z,10.88
2018-09-28T20:56:50.653Z,10.87
2018-09-28T20:59:19.212Z,10.81
2018-09-28T21:01:47.480Z,10.77
2018-09-28T21:04:15.846Z,10.69
2018-09-28T21:06:44.208Z,10.63
2018-09-28T21:09:12.564Z,10.59
2018-09-28T21:11:40.895Z,10.58
2018-09-28T21:14:09.208Z,10.56
2018-09-28T21:16:37.538Z,10.55
2018-09-28T21:19:05.887Z,10.55
2018-09-28T21:21:34.247Z,10.53
2018-09-28T21:24:02.560Z,10.51
2018-09-28T21:26:30.919Z,10.49
2018-09-28T21:28:59.334Z,10.46
2018-09-28T21:31:27.650Z,10.45
2018-09-28T21:33:55.944Z,10.40
2018-09-28T21:36:24.236Z,10.39
2018-09-28T21:38:52.536Z,10.34
2018-09-28T21:41:20.904Z,10.32
2018-09-28T21:43:49.249Z,10.33
2018-09-28T21:46:17.540Z,10.33
2018-09-28T21:48:45.887Z,10.28
2018-09-28T21:51:14.180Z,10.23
2018-09-28T21:53:42.563Z,10.17
2018-09-28T21:56:10.941Z,10.14
2018-09-28T21:58:39.262Z,10.08
2018-09-28T22:01:07.814Z,10.01
2018-09-28T22:03:36.157Z,9.99
2018-09-28T22:06:04.545Z,9.96
2018-09-28T22:08:32.852Z,9.93
2018-09-28T22:11:01.193Z,9.92
2018-09-28T22:13:53.425Z,9.91
2018-09-28T22:16:22.336Z,9.93
2018-09-28T22:18:50.653Z,9.90
2018-09-28T22:21:18.968Z,9.87
2018-09-28T22:23:47.313Z,9.86
2018-09-28T22:26:15.619Z,9.85
2018-09-28T22:28:43.928Z,9.85
2018-09-28T22:31:12.281Z,9.84
2018-09-28T22:33:40.613Z,9.77
2018-09-28T22:36:08.957Z,9.77
2018-09-28T22:38:37.254Z,9.76
2018-09-28T22:41:05.610Z,9.69
2018-09-28T22:43:34.128Z,9.62
2018-09-28T22:46:02.470Z,9.49
2018-09-28T22:48:30.772Z,9.34
2018-09-28T22:50:59.057Z,9.20
2018-09-28T22:53:27.566Z,9.07
2018-09-28T22:55:55.896Z,8.93
2018-09-28T22:58:24.211Z,8.83
2018-09-28T23:00:52.532Z,8.72
2018-09-28T23:03:20.856Z,8.65
2018-09-28T23:05:49.138Z,8.59
2018-09-28T23:08:17.520Z,8.52
2018-09-28T23:10:45.855Z,8.45
2018-09-28T23:13:14.191Z,8.39
2018-09-28T23:15:42.480Z,8.33
2018-09-28T23:18:10.866Z,8.27
2018-09-28T23:20:39.166Z,8.22
2018-09-28T23:23:07.453Z,8.17
2018-09-28T23:25:35.758Z,8.13
2018-09-28T23:28:04.089Z,8.07
2018-09-28T23:30:32.383Z,8.02
2018-09-28T23:33:00.697Z,7.99
2018-09-28T23:35:29.128Z,7.96
2018-09-28T23:37:57.585Z,7.89
2018-09-28T23:40:25.890Z,7.87
2018-09-28T23:42:54.331Z,7.81
2018-09-28T23:45:23.044Z,7.79
2018-09-28T23:47:51.364Z,7.78
2018-09-28T23:50:19.651Z,7.75
2018-09-28T23:52:47.954Z,7.75
2018-09-28T23:55:16.262Z,7.71
2018-09-28T23:57:44.650Z,7.65
